createdAt,value
2022-11-24T00:00:47.475Z,7.60
2022-11-24T00:03:36.007Z,7.70
2022-11-24T00:06:23.595Z,7.70
2022-11-24T00:09:11.804Z,7.80
2022-11-24T00:12:01.396Z,7.80
2022-11-24T00:14:49.783Z,7.80
2022-11-24T00:17:39.452Z,7.80
2022-11-24T00:20:27.521Z,7.80
2022-11-24T00:23:15.224Z,7.80
2022-11-24T00:26:07.283Z,7.90
2022-11-24T00:28:56.675Z,7.90
2022-11-24T00:31:44.650Z,7.90
2022-11-24T00:34:34.570Z,7.90
2022-11-24T00:37:22.406Z,7.90
2022-11-24T00:40:10.415Z,7.90
2022-11-24T00:42:57.579Z,8.00
2022-11-24T00:45:45.397Z,7.90
2022-11-24T00:48:33.287Z,7.90
2022-11-24T00:51:23.593Z,7.90
2022-11-24T00:54:11.008Z,7.90
2022-11-24T00:56:59.040Z,7.90
2022-11-24T00:59:46.740Z,7.90
2022-11-24T01:02:34.716Z,7.90
2022-11-24T01:05:22.193Z,7.90
2022-11-24T01:08:11.671Z,7.90
2022-11-24T01:11:07.750Z,7.90
2022-11-24T01:13:57.462Z,7.80
2022-11-24T01:16:44.718Z,7.80
2022-11-24T01:19:38.347Z,7.90
2022-11-24T01:22:27.551Z,7.90
2022-11-24T01:25:16.689Z,7.90
2022-11-24T01:28:04.520Z,7.80
2022-11-24T01:30:58.107Z,7.90
2022-11-24T01:33:46.258Z,8.30
2022-11-24T01:36:34.352Z,8.00
2022-11-24T01:39:21.741Z,8.00
2022-11-24T01:42:10.677Z,8.00
2022-11-24T01:45:14.197Z,8.00
2022-11-24T01:48:04.339Z,8.00
2022-11-24T01:50:55.399Z,8.00
2022-11-24T01:53:44.047Z,8.00
2022-11-24T01:56:32.789Z,8.10
2022-11-24T01:59:22.978Z,8.10
2022-11-24T02:02:14.057Z,8.10
2022-11-24T02:05:06.034Z,8.10
2022-11-24T02:07:56.474Z,8.10
2022-11-24T02:10:45.456Z,8.10
2022-11-24T02:13:33.817Z,8.10
2022-11-24T02:16:23.394Z,8.20
2022-11-24T02:19:15.854Z,8.20
2022-11-24T02:22:04.751Z,8.20
2022-11-24T02:24:57.355Z,8.30
2022-11-24T02:27:52.263Z,8.40
2022-11-24T02:30:41.460Z,8.40
2022-11-24T02:33:29.477Z,8.30
2022-11-24T02:36:17.729Z,8.40
2022-11-24T02:39:06.926Z,8.40
2022-11-24T02:41:55.838Z,8.40
2022-11-24T02:44:47.030Z,8.40
2022-11-24T02:47:34.884Z,8.50
2022-11-24T02:50:22.271Z,8.50
2022-11-24T02:53:10.268Z,8.50
2022-11-24T02:55:57.864Z,8.50
2022-11-24T02:58:45.614Z,8.50
2022-11-24T03:01:34.695Z,8.60
2022-11-24T03:04:22.153Z,8.60
2022-11-24T03:07:10.068Z,8.60
2022-11-24T03:09:57.767Z,8.60
2022-11-24T03:12:45.700Z,8.80
2022-11-24T03:15:33.473Z,9.30
2022-11-24T03:18:25.408Z,8.80
2022-11-24T03:21:13.500Z,8.70
2022-11-24T03:24:01.496Z,8.80
2022-11-24T03:26:48.920Z,8.70
2022-11-24T03:29:36.712Z,8.80
2022-11-24T03:32:24.793Z,8.70
2022-11-24T03:35:13.645Z,8.70
2022-11-24T03:38:01.211Z,8.60
2022-11-24T03:40:49.933Z,8.60
2022-11-24T03:43:43.459Z,8.50
2022-11-24T03:46:31.594Z,8.50
2022-11-24T03:49:19.295Z,8.50
2022-11-24T03:52:08.541Z,8.40
2022-11-24T03:54:55.825Z,8.40
2022-11-24T03:57:43.476Z,10.40
2022-11-24T04:00:31.730Z,8.50
2022-11-24T04:03:19.371Z,8.50
2022-11-24T04:06:07.504Z,8.50
2022-11-24T04:08:56.998Z,9.20
2022-11-24T04:12:01.669Z,7.50
2022-11-24T04:14:49.505Z,8.40
2022-11-24T04:17:37.475Z,8.40
2022-11-24T04:20:25.284Z,8.40
2022-11-24T04:23:13.634Z,8.40
2022-11-24T04:26:02.488Z,8.40
2022-11-24T04:28:49.956Z,8.40
2022-11-24T04:31:37.511Z,8.40
2022-11-24T04:34:25.169Z,8.30
2022-11-24T04:37:12.595Z,8.30
2022-11-24T04:40:00.323Z,7.40
2022-11-24T04:42:55.902Z,8.30
2022-11-24T04:45:43.451Z,8.30
2022-11-24T04:48:31.023Z,8.20
2022-11-24T04:51:18.703Z,8.20
2022-11-24T04:54:06.141Z,8.20
2022-11-24T04:56:54.073Z,8.20
2022-11-24T04:59:43.345Z,8.10
2022-11-24T05:02:31.459Z,8.10
2022-11-24T05:05:18.731Z,8.00
2022-11-24T05:08:06.873Z,8.00
2022-11-24T05:10:57.036Z,8.00
2022-11-24T05:13:45.643Z,7.90
2022-11-24T05:16:36.073Z,8.00
2022-11-24T05:19:26.306Z,7.90
2022-11-24T05:22:17.542Z,7.80
2022-11-24T05:25:05.167Z,7.70
2022-11-24T05:27:52.896Z,7.80
2022-11-24T05:30:40.581Z,7.80
2022-11-24T05:33:30.225Z,7.70
2022-11-24T05:36:32.432Z,7.70
2022-11-24T05:39:19.806Z,7.60
2022-11-24T05:42:22.044Z,7.60
2022-11-24T05:45:10.578Z,7.60
2022-11-24T05:50:53.842Z,7.50
2022-11-24T05:53:41.749Z,8.10
2022-11-24T05:56:29.664Z,7.50
2022-11-24T05:59:17.890Z,7.40
2022-11-24T06:04:53.354Z,7.50
2022-11-24T06:07:42.959Z,7.50
2022-11-24T06:10:31.545Z,7.50
2022-11-24T06:13:19.776Z,7.40
2022-11-24T06:16:08.126Z,7.40
2022-11-24T06:18:55.661Z,7.40
2022-11-24T06:21:44.123Z,7.30
2022-11-24T06:24:33.885Z,7.40
2022-11-24T06:30:11.168Z,7.40
2022-11-24T06:32:58.387Z,7.40
2022-11-24T06:35:45.678Z,7.40
2022-11-24T06:38:34.060Z,7.40
2022-11-24T06:41:23.037Z,7.30
2022-11-24T06:44:11.008Z,7.30
2022-11-24T06:46:58.332Z,7.30
2022-11-24T06:49:45.604Z,7.30
2022-11-24T06:52:33.363Z,7.20
2022-11-24T06:55:21.059Z,7.20
2022-11-24T06:58:10.338Z,7.20
2022-11-24T07:00:58.853Z,7.20
2022-11-24T07:03:48.236Z,7.30
2022-11-24T07:06:35.634Z,7.30
2022-11-24T07:09:23.063Z,7.30
2022-11-24T07:12:10.854Z,7.30
2022-11-24T07:15:01.472Z,7.30
2022-11-24T07:17:49.221Z,7.30
2022-11-24T07:20:37.006Z,7.30
2022-11-24T07:23:24.858Z,7.30
2022-11-24T07:26:12.706Z,7.30
2022-11-24T07:29:00.887Z,7.30
2022-11-24T07:31:50.201Z,6.80
2022-11-24T07:40:18.825Z,7.40
2022-11-24T07:43:08.829Z,7.40
2022-11-24T07:46:00.609Z,7.30
2022-11-24T07:48:50.355Z,7.40
2022-11-24T07:51:37.512Z,7.30
2022-11-24T07:54:25.026Z,7.30
2022-11-24T07:57:12.725Z,7.30
2022-11-24T08:00:00.747Z,7.40
2022-11-24T08:02:59.249Z,7.30
2022-11-24T08:06:16.459Z,7.30
2022-11-24T08:09:03.502Z,7.30
2022-11-24T08:11:51.488Z,7.40
2022-11-24T08:14:39.484Z,7.40
2022-11-24T08:20:15.598Z,7.40
2022-11-24T08:23:06.469Z,7.40
2022-11-24T08:25:57.023Z,7.50
2022-11-24T08:28:45.524Z,7.20
2022-11-24T08:34:22.640Z,7.50
2022-11-24T08:37:10.123Z,7.50
2022-11-24T08:39:58.847Z,7.50
2022-11-24T08:42:46.357Z,7.90
2022-11-24T08:45:39.753Z,7.40
2022-11-24T08:48:30.006Z,7.40
2022-11-24T08:51:18.808Z,7.70
2022-11-24T08:54:06.125Z,7.90
2022-11-24T08:56:55.118Z,7.80
2022-11-24T08:59:42.860Z,7.80
2022-11-24T09:02:30.435Z,7.90
2022-11-24T09:08:25.495Z,8.00
2022-11-24T09:11:14.315Z,8.00
2022-11-24T09:14:02.954Z,8.00
2022-11-24T09:16:51.677Z,8.40
2022-11-24T09:19:39.139Z,5.80
2022-11-24T09:22:27.447Z,8.20
2022-11-24T09:25:15.339Z,8.20
2022-11-24T09:28:03.400Z,8.40
2022-11-24T09:30:52.632Z,8.40
2022-11-24T09:33:40.732Z,8.40
2022-11-24T09:36:28.227Z,8.50
2022-11-24T09:39:15.487Z,8.50
2022-11-24T09:42:14.374Z,8.70
2022-11-24T09:45:06.898Z,8.60
2022-11-24T09:48:00.301Z,8.60
2022-11-24T09:50:49.715Z,8.40
2022-11-24T09:53:39.063Z,8.60
2022-11-24T09:56:29.233Z,8.60
2022-11-24T09:59:18.010Z,10.60
2022-11-24T10:02:11.908Z,8.80
2022-11-24T10:05:00.501Z,8.90
2022-11-24T10:07:56.601Z,8.70
2022-11-24T10:10:50.247Z,9.00
2022-11-24T10:14:03.077Z,9.00
2022-11-24T10:16:53.927Z,9.10
2022-11-24T10:19:47.210Z,9.10
2022-11-24T10:22:43.201Z,9.20
2022-11-24T10:25:35.557Z,9.20
2022-11-24T10:28:28.333Z,9.30
2022-11-24T10:31:20.040Z,9.30
2022-11-24T10:34:14.366Z,9.30
2022-11-24T10:37:06.311Z,9.50
2022-11-24T10:40:01.423Z,9.60
2022-11-24T10:42:50.053Z,9.70
2022-11-24T10:45:39.482Z,9.60
2022-11-24T10:48:28.576Z,9.60
2022-11-24T10:51:33.074Z,9.70
2022-11-24T10:54:22.224Z,9.70
2022-11-24T10:57:27.823Z,9.80
2022-11-24T11:00:32.071Z,9.80
2022-11-24T11:03:22.338Z,9.90
2022-11-24T11:06:11.814Z,10.00
2022-11-24T11:09:12.728Z,10.20
2022-11-24T11:12:42.138Z,10.10
2022-11-24T11:15:25.434Z,10.20
2022-11-24T11:18:17.345Z,10.20
2022-11-24T11:21:06.433Z,10.30
2022-11-24T11:23:54.591Z,10.40
2022-11-24T11:26:42.889Z,10.40
2022-11-24T11:36:01.701Z,10.50
2022-11-24T11:38:49.836Z,10.50
2022-11-24T11:41:38.324Z,10.60
2022-11-24T11:47:19.762Z,10.60
2022-11-24T11:50:14.607Z,10.60
2022-11-24T11:53:06.565Z,10.60
2022-11-24T11:56:02.294Z,10.60
2022-11-24T11:59:06.481Z,10.60
2022-11-24T12:02:04.248Z,10.70
2022-11-24T12:04:53.891Z,10.70
2022-11-24T12:07:52.265Z,10.60
2022-11-24T12:10:44.126Z,10.80
2022-11-24T12:13:42.764Z,10.90
2022-11-24T12:16:35.401Z,11.00
2022-11-24T12:19:34.934Z,11.10
2022-11-24T12:22:26.096Z,11.20
2022-11-24T12:25:24.181Z,11.30
2022-11-24T12:28:20.120Z,11.20
2022-11-24T12:31:09.127Z,11.20
2022-11-24T12:34:09.249Z,12.20
2022-11-24T12:37:17.035Z,11.40
2022-11-24T12:40:06.563Z,11.10
2022-11-24T12:43:00.452Z,11.00
2022-11-24T12:45:53.222Z,11.10
2022-11-24T12:48:44.439Z,10.70
2022-11-24T12:51:34.646Z,11.20
2022-11-24T12:54:25.916Z,10.80
2022-11-24T12:57:17.715Z,11.10
2022-11-24T13:00:08.654Z,11.30
2022-11-24T13:03:07.471Z,11.30
2022-11-24T13:05:59.115Z,11.30
2022-11-24T13:08:47.221Z,11.30
2022-11-24T13:11:40.448Z,11.40
2022-11-24T13:14:31.841Z,11.40
2022-11-24T13:17:40.589Z,11.40
2022-11-24T13:20:33.042Z,11.30
2022-11-24T13:23:24.053Z,11.30
2022-11-24T13:26:16.315Z,11.30
2022-11-24T13:29:18.377Z,11.40
2022-11-24T13:32:30.844Z,11.30
2022-11-24T13:35:19.894Z,11.50
2022-11-24T13:38:26.652Z,11.50
2022-11-24T13:41:35.858Z,11.50
2022-11-24T13:44:29.284Z,11.60
2022-11-24T13:47:31.030Z,11.50
2022-11-24T13:50:33.895Z,11.60
2022-11-24T13:53:30.048Z,11.50
2022-11-24T13:56:23.146Z,11.10
2022-11-24T13:59:17.756Z,11.70
2022-11-24T14:02:20.047Z,11.30
2022-11-24T14:05:07.372Z,11.20
2022-11-24T14:07:55.405Z,11.10
2022-11-24T14:10:44.732Z,11.00
2022-11-24T14:13:33.460Z,11.10
2022-11-24T14:16:22.546Z,10.80
2022-11-24T14:19:11.087Z,10.70
2022-11-24T14:21:58.824Z,10.70
2022-11-24T14:24:52.834Z,10.60
2022-11-24T14:27:43.578Z,10.60
2022-11-24T14:30:31.772Z,10.40
2022-11-24T14:33:20.661Z,10.40
2022-11-24T14:36:17.762Z,10.40
2022-11-24T14:39:05.712Z,10.10
2022-11-24T14:41:55.119Z,10.00
2022-11-24T14:44:48.880Z,10.20
2022-11-24T14:47:38.438Z,10.00
2022-11-24T14:50:26.437Z,9.90
2022-11-24T14:53:16.529Z,9.60
2022-11-24T14:56:11.856Z,9.60
2022-11-24T14:59:00.034Z,9.50
2022-11-24T15:01:49.288Z,9.50
2022-11-24T15:05:02.890Z,9.40
2022-11-24T15:07:52.818Z,9.30
2022-11-24T15:10:41.515Z,9.20
2022-11-24T15:13:30.143Z,8.60
2022-11-24T15:16:18.882Z,9.00
2022-11-24T15:19:16.751Z,9.00
2022-11-24T15:22:18.817Z,8.90
2022-11-24T15:25:28.270Z,8.50
2022-11-24T15:28:16.771Z,8.70
2022-11-24T15:31:06.808Z,8.60
2022-11-24T15:33:56.983Z,8.60
2022-11-24T15:36:46.945Z,8.50
2022-11-24T15:39:34.812Z,8.10
2022-11-24T15:42:25.042Z,9.30
2022-11-24T15:45:13.139Z,8.40
2022-11-24T15:48:02.458Z,8.30
2022-11-24T15:50:50.706Z,7.30
2022-11-24T15:53:40.832Z,8.20
2022-11-24T15:56:31.443Z,8.20
2022-11-24T15:59:21.238Z,8.10
2022-11-24T16:02:09.868Z,8.10
2022-11-24T16:05:03.037Z,8.00
2022-11-24T16:07:53.242Z,7.90
2022-11-24T16:10:43.870Z,7.90
2022-11-24T16:13:31.672Z,7.90
2022-11-24T16:16:22.641Z,7.80
2022-11-24T16:19:12.919Z,6.40
2022-11-24T16:22:03.326Z,8.00
2022-11-24T16:24:51.066Z,7.90
2022-11-24T16:27:41.047Z,7.60
2022-11-24T16:30:29.241Z,8.00
2022-11-24T16:33:16.967Z,7.30
2022-11-24T16:36:07.223Z,7.30
2022-11-24T16:38:56.319Z,7.20
2022-11-24T16:41:45.844Z,7.20
2022-11-24T16:44:36.214Z,7.50
2022-11-24T16:47:24.916Z,7.50
2022-11-24T16:50:13.463Z,7.40
2022-11-24T16:53:02.196Z,7.40
2022-11-24T16:55:58.054Z,7.30
2022-11-24T16:58:45.669Z,7.30
2022-11-24T17:01:34.517Z,7.70
2022-11-24T17:04:22.252Z,7.30
2022-11-24T17:07:09.941Z,7.20
2022-11-24T17:09:58.901Z,7.20
2022-11-24T17:12:46.208Z,7.20
2022-11-24T17:15:37.772Z,7.10
2022-11-24T17:18:29.830Z,8.10
2022-11-24T17:21:18.763Z,7.10
2022-11-24T17:24:06.626Z,7.10
2022-11-24T17:26:54.206Z,6.70
2022-11-24T17:29:41.946Z,7.30
2022-11-24T17:32:29.728Z,7.00
2022-11-24T17:35:21.136Z,7.00
2022-11-24T17:38:09.514Z,6.90
2022-11-24T17:40:57.321Z,6.90
2022-11-24T17:43:49.627Z,6.90
2022-11-24T17:46:37.279Z,6.90
2022-11-24T17:49:26.627Z,6.30
2022-11-24T17:52:18.258Z,7.00
2022-11-24T17:58:05.179Z,7.10
2022-11-24T18:00:57.459Z,5.50
2022-11-24T18:03:53.452Z,7.20
2022-11-24T18:06:47.161Z,7.30
2022-11-24T18:09:37.065Z,7.10
2022-11-24T18:12:25.926Z,7.00
2022-11-24T18:15:13.727Z,7.10
2022-11-24T18:18:01.387Z,6.90
2022-11-24T18:20:54.315Z,6.70
2022-11-24T18:23:46.887Z,6.90
2022-11-24T18:26:37.316Z,6.90
2022-11-24T18:29:24.898Z,5.80
2022-11-24T18:32:13.494Z,7.10
2022-11-24T18:35:03.735Z,6.70
2022-11-24T18:37:51.355Z,6.60
2022-11-24T18:40:39.859Z,6.70
2022-11-24T18:43:34.069Z,6.70
2022-11-24T18:46:22.069Z,6.90
2022-11-24T18:49:12.469Z,6.80
2022-11-24T18:52:00.742Z,6.60
2022-11-24T18:54:50.498Z,7.10
2022-11-24T18:57:38.912Z,6.70
2022-11-24T19:00:27.527Z,6.50
2022-11-24T19:03:15.820Z,6.60
2022-11-24T19:06:03.525Z,6.80
2022-11-24T19:08:54.108Z,6.90
2022-11-24T19:11:44.845Z,7.00
2022-11-24T19:14:32.750Z,7.30
2022-11-24T19:17:22.107Z,7.10
2022-11-24T19:20:10.609Z,7.20
2022-11-24T19:22:58.783Z,7.20
2022-11-24T19:25:46.351Z,7.30
2022-11-24T19:28:35.071Z,8.70
2022-11-24T19:31:26.067Z,7.10
2022-11-24T19:34:15.246Z,7.00
2022-11-24T19:37:02.681Z,6.90
2022-11-24T19:39:51.305Z,7.20
2022-11-24T19:42:38.957Z,7.20
2022-11-24T19:45:28.857Z,6.30
2022-11-24T19:48:16.469Z,7.30
2022-11-24T19:51:06.207Z,7.30
2022-11-24T19:53:54.051Z,7.40
2022-11-24T19:56:41.489Z,7.50
2022-11-24T19:59:32.685Z,7.50
2022-11-24T20:02:20.668Z,7.60
2022-11-24T20:05:10.370Z,7.60
2022-11-24T20:07:59.302Z,7.70
2022-11-24T20:10:47.078Z,7.90
2022-11-24T20:13:37.252Z,8.90
2022-11-24T20:16:30.039Z,7.90
2022-11-24T20:19:18.309Z,7.90
2022-11-24T20:22:06.384Z,7.90
2022-11-24T20:24:56.122Z,7.90
2022-11-24T20:27:44.723Z,7.90
2022-11-24T20:30:32.293Z,7.80
2022-11-24T20:33:21.814Z,7.40
2022-11-24T20:36:11.547Z,7.80
2022-11-24T20:39:00.056Z,7.90
2022-11-24T20:41:49.985Z,7.50
2022-11-24T20:44:42.588Z,7.60
2022-11-24T20:47:31.045Z,7.70
2022-11-24T20:50:18.201Z,7.80
2022-11-24T20:53:06.681Z,6.30
2022-11-24T20:55:54.011Z,8.00
2022-11-24T20:58:46.320Z,7.60
2022-11-24T21:01:38.508Z,7.70
2022-11-24T21:04:26.869Z,7.60
2022-11-24T21:07:15.930Z,7.60
2022-11-24T21:10:04.462Z,7.70
2022-11-24T21:12:51.753Z,7.70
2022-11-24T21:15:43.543Z,7.70
2022-11-24T21:18:31.050Z,7.80
2022-11-24T21:21:18.411Z,5.10
2022-11-24T21:24:07.063Z,8.10
2022-11-24T21:26:54.842Z,7.90
2022-11-24T21:29:42.169Z,7.90
2022-11-24T21:32:35.349Z,8.00
2022-11-24T21:35:22.828Z,8.60
2022-11-24T21:38:11.074Z,8.50
2022-11-24T21:41:00.391Z,8.10
2022-11-24T21:43:48.116Z,8.10
2022-11-24T21:46:44.090Z,8.20
2022-11-24T21:49:34.700Z,7.90
2022-11-24T21:52:22.832Z,8.30
2022-11-24T21:55:10.835Z,8.40
2022-11-24T21:57:57.930Z,8.40
2022-11-24T22:00:47.765Z,8.40
2022-11-24T22:03:35.648Z,8.50
2022-11-24T22:06:28.206Z,9.30
2022-11-24T22:09:18.214Z,8.70
2022-11-24T22:12:07.210Z,8.30
2022-11-24T22:14:54.639Z,8.10
2022-11-24T22:17:42.433Z,8.90
2022-11-24T22:20:29.768Z,9.00
2022-11-24T22:23:19.431Z,9.30
2022-11-24T22:26:07.559Z,9.10
2022-11-24T22:28:56.087Z,9.30
2022-11-24T22:31:44.290Z,9.40
2022-11-24T22:34:32.634Z,9.60
2022-11-24T22:37:20.514Z,9.40
2022-11-24T22:40:10.474Z,9.60
2022-11-24T22:42:59.282Z,9.70
2022-11-24T22:45:51.625Z,9.80
2022-11-24T22:48:39.270Z,9.80
2022-11-24T22:51:27.455Z,9.90
2022-11-24T22:54:15.165Z,9.90
2022-11-24T22:57:04.600Z,9.90
2022-11-24T22:59:52.464Z,10.00
2022-11-24T23:02:40.926Z,10.00
2022-11-24T23:05:29.372Z,10.10
2022-11-24T23:16:41.028Z,10.10
2022-11-24T23:19:29.498Z,10.20
2022-11-24T23:27:58.100Z,10.30
2022-11-24T23:30:46.204Z,10.30
2022-11-24T23:33:36.913Z,10.30
2022-11-24T23:36:25.779Z,10.30
2022-11-24T23:39:16.562Z,10.30
2022-11-24T23:42:04.587Z,10.30
2022-11-24T23:47:40.024Z,10.30
2022-11-24T23:50:31.368Z,10.40
2022-11-24T23:53:19.541Z,10.40
2022-11-24T23:56:09.839Z,10.50
2022-11-24T23:58:57.921Z,10.50
